Time;durP1;ratioP1;P1;durP2;ratioP2;P2;SDS_P1;SDS_P2;PMS_P1;PMS_P2;Temp;Humidity;BMP_temperature;BMP_pressure;BME280_temperature;BME280_humidity;BME280_pressure;Samples;Min_cycle;Max_cycle;Signal;HPM_P1;HPM_P2
2021/04/28 06:07:05;;;;;;;13.82;7.80;;;;;;;;;;5048300;27;20427;-68
2021/04/28 06:09:31;;;;;;;14.63;8.10;;;;;;;;;;5077969;28;20083;-68
2021/04/28 06:11:56;;;;;;;15.68;8.18;;;;;;;;;;5047878;28;20017;-68
2021/04/28 06:14:22;;;;;;;16.15;8.32;;;;;;;;;;5047804;28;20075;-69
2021/04/28 06:16:47;;;;;;;16.85;8.48;;;;;;;;;;5048029;28;20005;-69
2021/04/28 06:19:13;;;;;;;13.43;8.23;;;;;;;;;;5046835;28;20514;-71
2021/04/28 06:21:39;;;;;;;17.40;8.65;;;;;;;;;;5044549;28;20466;-70
2021/04/28 06:24:05;;;;;;;18.15;9.05;;;;;;;;;;5048552;28;20068;-69
2021/04/28 06:26:31;;;;;;;16.02;8.68;;;;;;;;;;5047943;28;20036;-69
2021/04/28 06:28:56;;;;;;;16.60;8.52;;;;;;;;;;5047544;28;20009;-69
2021/04/28 06:31:21;;;;;;;16.27;9.13;;;;;;;;;;5048630;28;20035;-70
2021/04/28 06:33:47;;;;;;;17.90;8.30;;;;;;;;;;5038175;28;20575;-67
2021/04/28 06:36:12;;;;;;;18.90;8.95;;;;;;;;;;5045811;28;20021;-68
2021/04/28 06:38:38;;;;;;;14.98;8.82;;;;;;;;;;5047511;28;20021;-69
2021/04/28 06:41:04;;;;;;;17.88;8.52;;;;;;;;;;5041790;28;20037;-67
2021/04/28 06:43:29;;;;;;;14.07;7.90;;;;;;;;;;5038186;28;20488;-67
2021/04/28 06:45:55;;;;;;;15.50;8.07;;;;;;;;;;5034162;28;20112;-68
2021/04/28 06:48:20;;;;;;;15.48;8.32;;;;;;;;;;5044346;28;20120;-65
2021/04/28 06:50:46;;;;;;;15.88;8.60;;;;;;;;;;5031573;28;20009;-64
2021/04/28 06:53:11;;;;;;;15.88;8.35;;;;;;;;;;5041041;28;20072;-64
2021/04/28 06:55:36;;;;;;;11.90;7.70;;;;;;;;;;5038058;28;20017;-64
2021/04/28 06:58:02;;;;;;;18.00;7.25;;;;;;;;;;5033729;28;20044;-64
2021/04/28 07:00:28;;;;;;;16.95;7.85;;;;;;;;;;5044736;28;20022;-64
2021/04/28 07:02:54;;;;;;;18.58;9.13;;;;;;;;;;5030919;28;20036;-64
2021/04/28 07:05:20;;;;;;;12.63;7.22;;;;;;;;;;5037013;28;20046;-64
2021/04/28 07:07:46;;;;;;;16.42;7.95;;;;;;;;;;5038740;28;20047;-65
2021/04/28 07:10:12;;;;;;;13.75;7.07;;;;;;;;;;5031892;28;20486;-65
2021/04/28 07:12:37;;;;;;;15.07;7.55;;;;;;;;;;5043854;28;20018;-65
2021/04/28 07:15:03;;;;;;;18.77;8.63;;;;;;;;;;5033653;28;20431;-64
2021/04/28 07:17:28;;;;;;;19.17;8.18;;;;;;;;;;5028437;28;20041;-65
2021/04/28 07:19:54;;;;;;;19.50;9.48;;;;;;;;;;5014896;28;20026;-65
2021/04/28 07:22:19;;;;;;;17.73;8.32;;;;;;;;;;5009752;28;20053;-64
2021/04/28 07:24:45;;;;;;;17.08;7.55;;;;;;;;;;5017487;28;20786;-64
2021/04/28 07:27:11;;;;;;;17.80;7.75;;;;;;;;;;4997071;28;20033;-65
2021/04/28 07:29:37;;;;;;;13.23;8.27;;;;;;;;;;5013555;28;20021;-62
2021/04/28 07:32:02;;;;;;;13.18;7.35;;;;;;;;;;5007593;28;20030;-63
2021/04/28 07:34:28;;;;;;;17.55;7.72;;;;;;;;;;5007365;28;20026;-64
2021/04/28 07:36:54;;;;;;;18.05;8.20;;;;;;;;;;5024009;28;20119;-65
2021/04/28 07:39:19;;;;;;;16.95;7.13;;;;;;;;;;5032145;28;20540;-63
2021/04/28 07:41:45;;;;;;;13.00;6.95;;;;;;;;;;5018506;28;20029;-63
2021/04/28 07:44:10;;;;;;;13.15;7.60;;;;;;;;;;5028115;28;20109;-64
2021/04/28 07:46:36;;;;;;;13.02;7.00;;;;;;;;;;5017183;28;20117;-64
2021/04/28 07:49:04;;;;;;;13.93;6.88;;;;;;;;;;5024284;28;20037;-64
2021/04/28 07:51:31;;;;;;;19.43;7.87;;;;;;;;;;5022844;28;20395;-65
2021/04/28 07:53:57;;;;;;;11.45;7.03;;;;;;;;;;5019559;28;20084;-65
2021/04/28 07:56:22;;;;;;;12.82;7.35;;;;;;;;;;5013692;28;20030;-64
2021/04/28 07:58:47;;;;;;;11.05;6.78;;;;;;;;;;5029348;28;20034;-65
2021/04/28 08:01:13;;;;;;;12.05;7.10;;;;;;;;;;5012424;28;20030;-65
2021/04/28 08:03:38;;;;;;;14.32;6.65;;;;;;;;;;5028650;28;20075;-65
2021/04/28 08:06:04;;;;;;;14.45;7.15;;;;;;;;;;5012617;28;20170;-65
2021/04/28 08:08:29;;;;;;;12.23;7.13;;;;;;;;;;5017648;28;20068;-64
2021/04/28 08:10:55;;;;;;;12.07;6.63;;;;;;;;;;5019749;28;20468;-65
2021/04/28 08:13:20;;;;;;;16.10;7.47;;;;;;;;;;5004473;28;20029;-65
2021/04/28 08:15:47;;;;;;;14.95;6.55;;;;;;;;;;5019485;28;20010;-66
2021/04/28 08:18:13;;;;;;;19.00;7.53;;;;;;;;;;5008565;28;20038;-65
2021/04/28 08:20:38;;;;;;;14.90;6.72;;;;;;;;;;5009504;28;20535;-69
2021/04/28 08:23:04;;;;;;;14.93;7.93;;;;;;;;;;5011853;28;20036;-65
2021/04/28 08:25:29;;;;;;;14.48;7.47;;;;;;;;;;5003837;28;20034;-65
2021/04/28 08:27:55;;;;;;;13.70;7.20;;;;;;;;;;5025642;28;20040;-66
2021/04/28 08:30:20;;;;;;;13.30;7.05;;;;;;;;;;5003526;28;20025;-64
2021/04/28 08:32:46;;;;;;;11.05;6.75;;;;;;;;;;5016804;28;20010;-64
2021/04/28 08:35:14;;;;;;;13.00;7.15;;;;;;;;;;5018772;28;20473;-66
2021/04/28 08:37:39;;;;;;;13.10;7.10;;;;;;;;;;5018132;28;20029;-64
2021/04/28 08:40:05;;;;;;;15.63;6.75;;;;;;;;;;5017398;28;20080;-65
2021/04/28 08:42:32;;;;;;;18.67;7.30;;;;;;;;;;5004846;28;20025;-65
2021/04/28 08:44:58;;;;;;;43.83;8.32;;;;;;;;;;5021084;28;20058;-64
2021/04/28 08:47:24;;;;;;;31.00;9.05;;;;;;;;;;5015816;28;20030;-65
2021/04/28 08:49:49;;;;;;;33.05;7.70;;;;;;;;;;5008556;28;20015;-67
2021/04/28 08:52:15;;;;;;;23.33;7.07;;;;;;;;;;5029076;28;20027;-67
2021/04/28 08:54:41;;;;;;;46.35;7.30;;;;;;;;;;5014687;28;20442;-68
2021/04/28 08:57:06;;;;;;;26.42;7.47;;;;;;;;;;5009723;28;20022;-68
2021/04/28 08:59:32;;;;;;;11.13;6.97;;;;;;;;;;5009445;28;20041;-68
2021/04/28 09:02:10;;;;;;;24.67;6.95;;;;;;;;;;5031422;28;20044;-69
2021/04/28 09:04:36;;;;;;;11.68;6.43;;;;;;;;;;5032167;28;20005;-68
2021/04/28 09:07:03;;;;;;;17.88;6.65;;;;;;;;;;5022187;28;20060;-69
2021/04/28 09:09:28;;;;;;;28.08;7.38;;;;;;;;;;5025298;28;20025;-69
2021/04/28 09:11:54;;;;;;;14.20;6.82;;;;;;;;;;5031041;28;20009;-71
2021/04/28 09:14:28;;;;;;;15.65;6.70;;;;;;;;;;5016654;28;20013;-69
2021/04/28 09:17:01;;;;;;;19.15;6.90;;;;;;;;;;5021544;28;21091;-69
2021/04/28 09:19:31;;;;;;;19.92;7.97;;;;;;;;;;5023562;28;20030;-69
2021/04/28 09:22:04;;;;;;;16.00;7.45;;;;;;;;;;5030127;28;20083;-69
2021/04/28 09:24:31;;;;;;;24.45;6.70;;;;;;;;;;5023471;28;20031;-69
2021/04/28 09:26:57;;;;;;;17.90;6.53;;;;;;;;;;5031572;28;20482;-69
2021/04/28 09:29:24;;;;;;;19.58;6.97;;;;;;;;;;5032723;28;20021;-70
2021/04/28 09:31:57;;;;;;;16.20;6.70;;;;;;;;;;5032240;28;20014;-70
2021/04/28 09:34:39;;;;;;;19.33;7.13;;;;;;;;;;5032732;28;20021;-69
2021/04/28 09:37:07;;;;;;;8.77;5.70;;;;;;;;;;5032595;28;20018;-69
2021/04/28 09:39:37;;;;;;;13.98;6.38;;;;;;;;;;5031837;28;20014;-69
2021/04/28 09:42:03;;;;;;;14.77;7.90;;;;;;;;;;5032164;28;20052;-65
2021/04/28 09:44:31;;;;;;;13.38;7.18;;;;;;;;;;5031457;28;20054;-65
2021/04/28 09:47:05;;;;;;;11.65;6.82;;;;;;;;;;5030903;28;20033;-65
2021/04/28 09:49:49;;;;;;;15.07;7.80;;;;;;;;;;5031123;28;20026;-65
2021/04/28 09:52:15;;;;;;;14.80;6.97;;;;;;;;;;5035410;28;20029;-67
2021/04/28 09:54:42;;;;;;;15.25;6.82;;;;;;;;;;5040397;28;20050;-66
2021/04/28 09:57:07;;;;;;;20.33;8.18;;;;;;;;;;5037428;28;20071;-67
2021/04/28 09:59:40;;;;;;;11.98;8.07;;;;;;;;;;5030526;28;20026;-66
2021/04/28 10:02:05;;;;;;;12.65;7.57;;;;;;;;;;5031260;28;20386;-65
2021/04/28 10:04:31;;;;;;;13.30;8.25;;;;;;;;;;5032020;28;20021;-66
2021/04/28 10:06:57;;;;;;;13.38;8.82;;;;;;;;;;5031154;28;20517;-66
2021/04/28 10:09:30;;;;;;;14.80;8.73;;;;;;;;;;5032369;28;20136;-66
2021/04/28 10:11:56;;;;;;;13.82;9.55;;;;;;;;;;5035033;28;20040;-65
2021/04/28 10:14:21;;;;;;;19.20;9.43;;;;;;;;;;5032851;28;20025;-66
2021/04/28 10:16:47;;;;;;;12.18;8.02;;;;;;;;;;5031255;28;20023;-66
2021/04/28 10:19:13;;;;;;;16.08;8.68;;;;;;;;;;5030404;28;20573;-66
2021/04/28 10:21:38;;;;;;;17.73;9.23;;;;;;;;;;5031924;28;20028;-66
2021/04/28 10:24:05;;;;;;;14.65;8.00;;;;;;;;;;5031052;28;20026;-66
2021/04/28 10:26:31;;;;;;;27.98;8.85;;;;;;;;;;5030114;28;20037;-66
2021/04/28 10:28:58;;;;;;;21.23;9.48;;;;;;;;;;5031615;28;20022;-65
2021/04/28 10:31:23;;;;;;;13.40;7.90;;;;;;;;;;5011649;28;20036;-65
2021/04/28 10:33:49;;;;;;;18.30;8.50;;;;;;;;;;5023845;28;20022;-66
2021/04/28 10:36:14;;;;;;;12.70;7.78;;;;;;;;;;5029688;28;20414;-66
2021/04/28 10:38:40;;;;;;;17.50;9.07;;;;;;;;;;5029026;28;20072;-65
2021/04/28 10:41:05;;;;;;;15.75;8.32;;;;;;;;;;5030331;28;20101;-66
2021/04/28 10:43:34;;;;;;;11.50;7.60;;;;;;;;;;5030621;28;20033;-65
2021/04/28 10:46:16;;;;;;;22.52;9.23;;;;;;;;;;5029806;28;20382;-66
2021/04/28 10:48:41;;;;;;;13.48;8.07;;;;;;;;;;5029944;28;20428;-66
2021/04/28 10:51:07;;;;;;;13.55;8.43;;;;;;;;;;5030739;28;20024;-66
2021/04/28 10:53:33;;;;;;;18.60;8.48;;;;;;;;;;5033771;28;20021;-65
2021/04/28 10:55:59;;;;;;;13.57;8.48;;;;;;;;;;5021983;28;20478;-66
2021/04/28 10:58:35;;;;;;;16.67;7.93;;;;;;;;;;5031465;28;20536;-66
2021/04/28 11:01:10;;;;;;;17.00;8.73;;;;;;;;;;5020116;28;20037;-65
2021/04/28 11:03:46;;;;;;;20.98;8.85;;;;;;;;;;5022996;28;20026;-66
2021/04/28 11:06:25;;;;;;;13.18;8.75;;;;;;;;;;5028658;28;20132;-65
2021/04/28 11:09:04;;;;;;;15.33;8.47;;;;;;;;;;5024878;28;20005;-64
2021/04/28 11:11:38;;;;;;;11.35;7.95;;;;;;;;;;5017741;28;20033;-64
2021/04/28 11:14:18;;;;;;;12.98;7.55;;;;;;;;;;5003905;28;20488;-64
2021/04/28 11:16:43;;;;;;;;;;;;;;;;;;5024352;28;20018;-65
2021/04/28 11:19:16;;;;;;;17.53;7.57;;;;;;;;;;5028218;28;20379;-67
2021/04/28 11:21:41;;;;;;;17.40;7.80;;;;;;;;;;5017651;28;20702;-67
2021/04/28 11:24:12;;;;;;;13.65;7.60;;;;;;;;;;5028496;28;20018;-66
2021/04/28 11:26:50;;;;;;;12.93;7.53;;;;;;;;;;5023337;28;20017;-66
2021/04/28 11:29:19;;;;;;;17.67;8.40;;;;;;;;;;5019754;28;20496;-67
2021/04/28 11:31:46;;;;;;;13.70;7.43;;;;;;;;;;5029206;28;20029;-66
2021/04/28 11:34:30;;;;;;;10.45;6.53;;;;;;;;;;5019433;28;20122;-65
2021/04/28 11:37:03;;;;;;;17.10;6.53;;;;;;;;;;5022230;28;20017;-65
2021/04/28 11:39:37;;;;;;;20.67;6.57;;;;;;;;;;5029783;28;20488;-69
2021/04/28 11:42:06;;;;;;;17.67;6.93;;;;;;;;;;5001541;28;20019;-69
2021/04/28 11:44:31;;;;;;;;;;;;;;;;;;5025357;28;20010;-68
2021/04/28 11:47:10;;;;;;;12.60;6.38;;;;;;;;;;5025453;28;19924;-68
2021/04/28 11:49:43;;;;;;;14.73;7.60;;;;;;;;;;5017686;28;20032;-67
2021/04/28 11:52:09;;;;;;;13.48;7.03;;;;;;;;;;5030680;28;20021;-67
2021/04/28 11:54:35;;;;;;;13.40;6.85;;;;;;;;;;5033717;28;20091;-67
2021/04/28 11:57:01;;;;;;;24.63;9.32;;;;;;;;;;5025187;28;20068;-67
2021/04/28 11:59:27;;;;;;;15.77;7.63;;;;;;;;;;5013673;28;20386;-67
2021/04/28 12:01:57;;;;;;;20.15;8.77;;;;;;;;;;5033183;28;20024;-69
2021/04/28 12:04:26;;;;;;;14.75;9.02;;;;;;;;;;5026304;28;20359;-67
2021/04/28 12:06:53;;;;;;;15.80;8.32;;;;;;;;;;5023901;28;20107;-67
2021/04/28 12:09:29;;;;;;;16.35;8.52;;;;;;;;;;5021635;28;20022;-66
2021/04/28 12:12:13;;;;;;;18.98;8.73;;;;;;;;;;5017282;28;20466;-63
2021/04/28 12:14:40;;;;;;;17.13;8.90;;;;;;;;;;5023618;28;20025;-63
2021/04/28 12:17:05;;;;;;;19.95;9.27;;;;;;;;;;5026260;28;20017;-64
2021/04/28 12:19:31;;;;;;;14.52;8.68;;;;;;;;;;5014778;28;20308;-64
2021/04/28 12:21:57;;;;;;;23.10;9.82;;;;;;;;;;5027364;28;20025;-64
2021/04/28 12:24:31;;;;;;;17.73;9.20;;;;;;;;;;5021056;28;20063;-65
2021/04/28 12:27:14;;;;;;;20.15;9.73;;;;;;;;;;5020483;28;20068;-62
2021/04/28 12:29:41;;;;;;;16.73;9.02;;;;;;;;;;5029584;28;20017;-64
2021/04/28 12:32:10;;;;;;;21.52;10.85;;;;;;;;;;5029517;28;20013;-66
2021/04/28 12:34:36;;;;;;;13.25;8.98;;;;;;;;;;5021848;28;20018;-65
2021/04/28 12:37:09;;;;;;;10.98;7.88;;;;;;;;;;5024193;28;20029;-66
2021/04/28 12:39:35;;;;;;;13.77;6.95;;;;;;;;;;5014905;28;20025;-68
2021/04/28 12:42:01;;;;;;;18.77;9.18;;;;;;;;;;5028484;28;20040;-67
2021/04/28 12:44:26;;;;;;;19.13;7.90;;;;;;;;;;5020804;28;20099;-67
2021/04/28 12:46:53;;;;;;;21.90;9.45;;;;;;;;;;5020902;28;20389;-67
2021/04/28 12:49:22;;;;;;;16.75;8.60;;;;;;;;;;5027689;28;20461;-67
2021/04/28 12:51:51;;;;;;;14.95;10.88;;;;;;;;;;5015887;28;20018;-68
2021/04/28 12:54:28;;;;;;;14.13;6.95;;;;;;;;;;5025904;28;20018;-67
2021/04/28 12:56:54;;;;;;;14.30;7.97;;;;;;;;;;5023326;28;20025;-68
2021/04/28 12:59:22;;;;;;;29.40;9.70;;;;;;;;;;5017424;28;20475;-67
2021/04/28 13:02:09;;;;;;;23.88;9.70;;;;;;;;;;5029055;28;20069;-68
2021/04/28 13:04:34;;;;;;;17.13;9.63;;;;;;;;;;5020917;28;20087;-67
2021/04/28 13:07:18;;;;;;;19.20;9.27;;;;;;;;;;5019315;28;20488;-67
2021/04/28 13:09:44;;;;;;;23.35;10.50;;;;;;;;;;5028502;28;20079;-64
2021/04/28 13:12:30;;;;;;;27.15;10.27;;;;;;;;;;5018079;28;20096;-70
2021/04/28 13:14:55;;;;;;;14.40;9.48;;;;;;;;;;5017496;28;20014;-68
2021/04/28 13:17:21;;;;;;;17.73;11.45;;;;;;;;;;5027792;28;20394;-73
2021/04/28 13:19:46;;;;;;;17.52;9.95;;;;;;;;;;5015780;28;20459;-69
2021/04/28 13:22:16;;;;;;;19.27;10.13;;;;;;;;;;5026144;28;20075;-68
2021/04/28 13:24:46;;;;;;;25.00;10.95;;;;;;;;;;5021839;28;20363;-67
2021/04/28 13:27:13;;;;;;;22.00;10.90;;;;;;;;;;5024814;28;20232;-69
2021/04/28 13:29:57;;;;;;;22.17;10.57;;;;;;;;;;5015034;28;20025;-67
2021/04/28 13:32:29;;;;;;;24.42;10.55;;;;;;;;;;5024710;28;20072;-72
2021/04/28 13:34:55;;;;;;;23.77;11.15;;;;;;;;;;5023246;28;20046;-66
2021/04/28 13:37:20;;;;;;;28.88;12.25;;;;;;;;;;5016368;28;20057;-62
2021/04/28 13:39:46;;;;;;;22.33;11.07;;;;;;;;;;5027223;28;20466;-62
2021/04/28 13:42:13;;;;;;;21.13;11.27;;;;;;;;;;5017623;28;20111;-63
2021/04/28 13:44:39;;;;;;;21.95;11.05;;;;;;;;;;5022092;28;20021;-62
2021/04/28 13:47:05;;;;;;;21.33;10.63;;;;;;;;;;5024080;28;20030;-63
2021/04/28 13:49:30;;;;;;;19.58;11.52;;;;;;;;;;5031074;28;20036;-64
2021/04/28 13:51:56;;;;;;;24.42;11.25;;;;;;;;;;5015651;28;20022;-64
2021/04/28 13:54:23;;;;;;;20.17;12.35;;;;;;;;;;5024344;28;20017;-64
2021/04/28 13:56:49;;;;;;;21.42;11.30;;;;;;;;;;5022025;28;20048;-63
2021/04/28 13:59:15;;;;;;;20.75;11.30;;;;;;;;;;5031635;28;20029;-64
2021/04/28 14:01:41;;;;;;;23.88;13.50;;;;;;;;;;5014416;28;20428;-64
2021/04/28 14:04:07;;;;;;;22.23;11.82;;;;;;;;;;5012970;28;20022;-63
2021/04/28 14:06:32;;;;;;;24.90;12.25;;;;;;;;;;5026928;28;20049;-63
2021/04/28 14:09:00;;;;;;;23.58;11.57;;;;;;;;;;5018118;28;20029;-63
2021/04/28 14:11:25;;;;;;;22.75;11.65;;;;;;;;;;5019712;28;20111;-64
2021/04/28 14:13:51;;;;;;;23.88;13.23;;;;;;;;;;5029766;28;20497;-64
2021/04/28 14:16:17;;;;;;;23.45;11.35;;;;;;;;;;5014804;28;20034;-65
2021/04/28 14:18:42;;;;;;;25.90;12.68;;;;;;;;;;5025247;28;20029;-65
2021/04/28 14:21:09;;;;;;;21.35;12.13;;;;;;;;;;5020924;28;20458;-63
2021/04/28 14:23:35;;;;;;;26.80;12.02;;;;;;;;;;5020705;28;20471;-63
2021/04/28 14:26:00;;;;;;;26.65;12.00;;;;;;;;;;5027604;28;20084;-64
2021/04/28 14:28:26;;;;;;;27.02;12.38;;;;;;;;;;5019138;28;20057;-65
2021/04/28 14:30:51;;;;;;;31.90;12.30;;;;;;;;;;5025834;28;20055;-65
2021/04/28 14:33:17;;;;;;;24.75;11.38;;;;;;;;;;5034679;28;20022;-64
2021/04/28 14:35:42;;;;;;;27.70;11.25;;;;;;;;;;5021192;28;20032;-65
2021/04/28 14:38:08;;;;;;;33.30;8.88;;;;;;;;;;5030599;28;20104;-65
2021/04/28 14:40:33;;;;;;;33.95;13.73;;;;;;;;;;5020051;28;20048;-64
2021/04/28 14:42:59;;;;;;;27.10;14.15;;;;;;;;;;5026831;28;20058;-64
2021/04/28 14:45:24;;;;;;;27.05;12.90;;;;;;;;;;5026644;28;20108;-65
2021/04/28 14:47:49;;;;;;;30.27;12.30;;;;;;;;;;5020200;28;20482;-66
2021/04/28 14:50:15;;;;;;;32.97;14.18;;;;;;;;;;5031377;28;20045;-66
2021/04/28 14:52:40;;;;;;;25.50;13.45;;;;;;;;;;5020279;28;20028;-66
2021/04/28 14:55:06;;;;;;;33.65;13.15;;;;;;;;;;5026332;28;20030;-66
2021/04/28 14:57:32;;;;;;;33.20;12.98;;;;;;;;;;5027514;28;20027;-66
2021/04/28 14:59:57;;;;;;;44.60;13.27;;;;;;;;;;5018839;28;20044;-66
2021/04/28 15:02:23;;;;;;;23.20;13.10;;;;;;;;;;5031770;28;20029;-65
2021/04/28 15:04:48;;;;;;;34.80;13.95;;;;;;;;;;5020678;28;20087;-65
2021/04/28 15:07:13;;;;;;;31.10;14.32;;;;;;;;;;5024544;28;20075;-65
2021/04/28 15:09:39;;;;;;;34.55;15.75;;;;;;;;;;5028006;28;20060;-65
2021/04/28 15:12:04;;;;;;;32.47;16.60;;;;;;;;;;5017670;28;20040;-66
2021/04/28 15:14:30;;;;;;;30.85;16.48;;;;;;;;;;5030821;28;20021;-65
2021/04/28 15:16:55;;;;;;;34.33;16.38;;;;;;;;;;5020818;28;20760;-65
2021/04/28 15:19:21;;;;;;;33.63;14.63;;;;;;;;;;5023108;28;20026;-64
2021/04/28 15:21:48;;;;;;;37.25;19.23;;;;;;;;;;5029543;28;20021;-64
2021/04/28 15:24:14;;;;;;;35.67;18.58;;;;;;;;;;5018245;28;20022;-65
2021/04/28 15:26:40;;;;;;;32.40;16.17;;;;;;;;;;5028191;28;20113;-65
2021/04/28 15:29:06;;;;;;;33.88;14.45;;;;;;;;;;5023875;28;20120;-65
2021/04/28 15:31:31;;;;;;;36.78;17.20;;;;;;;;;;5019503;28;20386;-64
2021/04/28 15:33:57;;;;;;;36.15;15.35;;;;;;;;;;5029813;28;20023;-65
2021/04/28 15:36:23;;;;;;;36.72;16.48;;;;;;;;;;5018110;28;20040;-65
2021/04/28 15:38:48;;;;;;;32.35;15.00;;;;;;;;;;5025722;28;20065;-65
2021/04/28 15:41:15;;;;;;;34.50;16.20;;;;;;;;;;5024213;28;20069;-65
2021/04/28 15:43:40;;;;;;;31.42;15.48;;;;;;;;;;5020540;28;20026;-65
2021/04/28 15:46:06;;;;;;;37.17;17.23;;;;;;;;;;5030137;28;20017;-65
2021/04/28 15:48:31;;;;;;;32.22;13.93;;;;;;;;;;5018669;28;20018;-65
2021/04/28 15:50:56;;;;;;;33.42;15.80;;;;;;;;;;5025797;28;20526;-66
2021/04/28 15:53:22;;;;;;;33.35;14.57;;;;;;;;;;5025077;28;20017;-66
2021/04/28 15:55:47;;;;;;;29.65;14.55;;;;;;;;;;5019296;28;20022;-66
2021/04/28 15:58:13;;;;;;;29.77;14.68;;;;;;;;;;5030510;28;20025;-67
2021/04/28 16:00:38;;;;;;;29.05;13.77;;;;;;;;;;5018952;28;20033;-66
2021/04/28 16:03:04;;;;;;;39.45;23.70;;;;;;;;;;5024718;28;20014;-66
2021/04/28 16:05:29;;;;;;;32.03;16.50;;;;;;;;;;5025810;28;20061;-66
2021/04/28 16:07:55;;;;;;;32.60;16.20;;;;;;;;;;5017320;28;20113;-66
2021/04/28 16:10:20;;;;;;;26.92;14.88;;;;;;;;;;5030263;28;20014;-66
2021/04/28 16:12:47;;;;;;;33.83;16.40;;;;;;;;;;5019862;28;20076;-68
2021/04/28 16:15:13;;;;;;;29.00;16.77;;;;;;;;;;5023119;28;20045;-66
2021/04/28 16:17:39;;;;;;;33.83;16.02;;;;;;;;;;5023824;28;20092;-69
2021/04/28 16:20:05;;;;;;;34.90;17.60;;;;;;;;;;5015884;28;20018;-69
2021/04/28 16:22:30;;;;;;;33.60;19.17;;;;;;;;;;5016770;28;20533;-69
2021/04/28 16:24:56;;;;;;;36.10;17.50;;;;;;;;;;5015301;28;20117;-68
2021/04/28 16:27:21;;;;;;;38.42;17.67;;;;;;;;;;5015307;28;20022;-69
2021/04/28 16:29:46;;;;;;;34.17;17.70;;;;;;;;;;5015556;28;20370;-66
2021/04/28 16:32:12;;;;;;;38.95;17.65;;;;;;;;;;5029861;28;20060;-67
2021/04/28 16:34:37;;;;;;;37.95;18.50;;;;;;;;;;5018128;28;20488;-66
2021/04/28 16:37:03;;;;;;;35.42;19.17;;;;;;;;;;5024103;28;20018;-65
2021/04/28 16:39:28;;;;;;;36.20;18.60;;;;;;;;;;5024858;28;20031;-65
2021/04/28 16:41:53;;;;;;;31.67;17.75;;;;;;;;;;5017134;28;20109;-68
2021/04/28 16:44:20;;;;;;;34.00;18.70;;;;;;;;;;5029361;28;20104;-67
2021/04/28 16:46:45;;;;;;;36.45;18.50;;;;;;;;;;5019125;28;20540;-65
2021/04/28 16:49:13;;;;;;;39.95;20.45;;;;;;;;;;5022728;28;20025;-66
2021/04/28 16:51:39;;;;;;;31.92;18.63;;;;;;;;;;5026476;28;20100;-66
2021/04/28 16:54:04;;;;;;;37.78;20.20;;;;;;;;;;5016572;28;20125;-67
2021/04/28 16:56:30;;;;;;;34.05;18.88;;;;;;;;;;5028208;28;20021;-70
2021/04/28 16:58:55;;;;;;;34.67;19.35;;;;;;;;;;5019866;28;20017;-72
2021/04/28 17:01:20;;;;;;;35.42;18.25;;;;;;;;;;5021743;28;20482;-69
2021/04/28 17:03:46;;;;;;;34.33;20.23;;;;;;;;;;5026918;28;20026;-69
2021/04/28 17:06:12;;;;;;;35.72;20.67;;;;;;;;;;5015477;28;20164;-70
2021/04/28 17:08:37;;;;;;;40.13;21.77;;;;;;;;;;5026403;28;20014;-71
2021/04/28 17:11:03;;;;;;;36.30;19.45;;;;;;;;;;5020946;28;20032;-70
2021/04/28 17:13:28;;;;;;;30.40;18.50;;;;;;;;;;5020120;28;20021;-69
2021/04/28 17:15:54;;;;;;;41.45;19.38;;;;;;;;;;5028082;28;20108;-68
2021/04/28 17:18:19;;;;;;;43.40;20.48;;;;;;;;;;5015680;28;20116;-70
2021/04/28 17:20:45;;;;;;;31.85;18.60;;;;;;;;;;5025766;28;20049;-68
2021/04/28 17:23:10;;;;;;;41.78;21.10;;;;;;;;;;5022102;28;20029;-69
2021/04/28 17:25:36;;;;;;;35.97;19.48;;;;;;;;;;5018584;28;20022;-69
